Terminal Aerodrome Forecast
Issued by NWS

Home | Current Version | Previous Version | Text Only | Print | Product List | Glossary On
Versions: 1 2 3 4 5 6 7 8 9 10 11 12 13 14 15 16 17
000
FTUS41 KGYX 242320
TAFPSM
TAF
KPSM 242320Z 2500/2524 16005KT 4SM BR SCT005 OVC035
     FM250200 20007KT P6SM BKN025 OVC050
     FM250600 34004KT P6SM SCT050 OVC070
     FM251300 35005KT P6SM BKN025 OVC040 PROB30 2514/2520 5SM -SHRA=

USA.gov is the U.S. government's official web portal to all federal, state and local government web resources and services.